createdAt,value
2023-04-30T00:01:45.495Z,27
2023-04-30T00:04:17.187Z,32
2023-04-30T00:06:48.620Z,32
2023-04-30T00:09:20.332Z,28
2023-04-30T00:11:54.684Z,28
2023-04-30T00:14:25.431Z,24
2023-04-30T00:16:56.297Z,24
2023-04-30T00:19:27.599Z,24
2023-04-30T00:21:58.512Z,25
2023-04-30T00:24:29.705Z,27
2023-04-30T00:27:01.233Z,26
2023-04-30T00:29:37.605Z,24
2023-04-30T00:32:08.915Z,26
2023-04-30T00:34:37.694Z,27
2023-04-30T00:37:08.874Z,26
2023-04-30T00:39:37.862Z,24
2023-04-30T00:42:09.234Z,24
2023-04-30T00:44:40.702Z,28
2023-04-30T00:47:12.470Z,24
2023-04-30T00:49:43.483Z,24
2023-04-30T00:52:14.679Z,24
2023-04-30T00:54:45.734Z,24
2023-04-30T00:57:17.344Z,24
2023-04-30T00:59:47.951Z,24
2023-04-30T01:02:18.372Z,27
2023-04-30T01:04:52.205Z,24
2023-04-30T01:07:21.711Z,24
2023-04-30T01:09:52.765Z,24
2023-04-30T01:12:23.666Z,24
2023-04-30T01:14:54.441Z,24
2023-04-30T01:17:25.861Z,23
2023-04-30T01:19:57.493Z,24
2023-04-30T01:22:29.209Z,24
2023-04-30T01:25:02.494Z,20
2023-04-30T01:27:33.580Z,24
2023-04-30T01:30:04.727Z,24
2023-04-30T01:32:35.259Z,24
2023-04-30T01:35:06.739Z,23
2023-04-30T01:37:38.969Z,24
2023-04-30T01:40:09.711Z,24
2023-04-30T01:42:40.621Z,20
2023-04-30T01:45:11.760Z,20
2023-04-30T01:47:44.333Z,20
2023-04-30T01:50:15.318Z,24
2023-04-30T01:52:49.047Z,20
2023-04-30T01:55:19.530Z,20
2023-04-30T01:57:50.462Z,20
2023-04-30T02:00:21.405Z,21
2023-04-30T02:02:52.145Z,24
2023-04-30T02:05:23.721Z,23
2023-04-30T02:07:58.655Z,24
2023-04-30T02:10:29.460Z,23
2023-04-30T02:13:00.189Z,24
2023-04-30T02:15:31.460Z,24
2023-04-30T02:18:04.169Z,24
2023-04-30T02:20:35.333Z,24
2023-04-30T02:23:06.428Z,23
2023-04-30T02:25:37.246Z,24
2023-04-30T02:28:10.582Z,24
2023-04-30T02:30:42.515Z,24
2023-04-30T02:33:13.748Z,24
2023-04-30T02:35:45.018Z,24
2023-04-30T02:38:16.778Z,24
2023-04-30T02:40:57.827Z,24
2023-04-30T02:43:29.794Z,24
2023-04-30T02:46:00.852Z,24
2023-04-30T02:48:34.325Z,24
2023-04-30T02:51:05.036Z,22
2023-04-30T02:53:35.797Z,21
2023-04-30T02:56:07.621Z,24
2023-04-30T02:58:40.803Z,20
2023-04-30T03:01:10.211Z,24
2023-04-30T03:03:41.021Z,24
2023-04-30T03:06:12.276Z,20
2023-04-30T03:08:44.045Z,24
2023-04-30T03:11:14.214Z,23
2023-04-30T03:13:47.669Z,23
2023-04-30T03:16:25.746Z,24
2023-04-30T03:18:56.451Z,24
2023-04-30T03:21:27.791Z,24
2023-04-30T03:24:02.242Z,24
2023-04-30T03:26:34.272Z,24
2023-04-30T03:29:06.914Z,20
2023-04-30T03:31:39.160Z,22
2023-04-30T03:34:09.628Z,23
2023-04-30T03:36:41.086Z,20
2023-04-30T03:39:12.562Z,24
2023-04-30T03:41:42.696Z,24
2023-04-30T03:44:13.541Z,24
2023-04-30T03:46:44.314Z,20
2023-04-30T03:49:15.413Z,24
2023-04-30T03:51:49.422Z,24
2023-04-30T03:54:20.655Z,21
2023-04-30T03:56:51.486Z,20
2023-04-30T03:59:23.945Z,20
2023-04-30T04:01:58.357Z,20
2023-04-30T04:04:29.869Z,23
2023-04-30T04:07:00.942Z,20
2023-04-30T04:09:32.087Z,19
2023-04-30T04:12:03.063Z,20
2023-04-30T04:14:34.697Z,20
2023-04-30T04:17:05.304Z,17
2023-04-30T04:19:38.229Z,20
2023-04-30T04:22:11.255Z,20
2023-04-30T04:24:42.350Z,24
2023-04-30T04:27:13.262Z,24
2023-04-30T04:29:47.280Z,21
2023-04-30T04:32:18.573Z,23
2023-04-30T04:34:50.742Z,21
2023-04-30T04:37:21.576Z,24
2023-04-30T04:39:53.307Z,20
2023-04-30T04:42:25.281Z,22
2023-04-30T04:44:56.521Z,20
2023-04-30T04:47:27.436Z,20
2023-04-30T04:49:58.621Z,21
2023-04-30T04:52:33.449Z,24
2023-04-30T04:55:05.471Z,24
2023-04-30T04:57:36.608Z,24
2023-04-30T05:00:07.636Z,24
2023-04-30T05:02:38.366Z,24
2023-04-30T05:05:09.388Z,23
2023-04-30T05:07:41.842Z,24
2023-04-30T05:10:12.618Z,24
2023-04-30T05:12:48.067Z,24
2023-04-30T05:15:19.976Z,24
2023-04-30T05:17:50.680Z,24
2023-04-30T05:20:21.668Z,24
2023-04-30T05:22:59.960Z,28
2023-04-30T05:25:32.290Z,28
2023-04-30T05:28:07.443Z,28
2023-04-30T05:30:40.814Z,28
2023-04-30T05:33:16.740Z,32
2023-04-30T05:35:50.169Z,31
2023-04-30T05:38:20.712Z,33
2023-04-30T05:40:51.586Z,36
2023-04-30T05:43:24.580Z,32
2023-04-30T05:51:14.455Z,32
2023-04-30T05:53:48.820Z,32
2023-04-30T06:04:16.856Z,32
2023-04-30T06:09:34.369Z,32
2023-04-30T06:12:05.204Z,32
2023-04-30T06:14:39.002Z,32
2023-04-30T06:20:04.397Z,32
2023-04-30T06:33:36.072Z,32
2023-04-30T06:36:06.299Z,31
2023-04-30T06:38:36.924Z,31
2023-04-30T06:41:07.633Z,72
2023-04-30T06:43:38.640Z,51
2023-04-30T06:46:13.054Z,36
2023-04-30T06:54:11.616Z,36
2023-04-30T06:56:41.754Z,31
2023-04-30T06:59:12.719Z,32
2023-04-30T07:01:43.510Z,28
2023-04-30T07:04:14.383Z,28
2023-04-30T07:06:45.529Z,28
2023-04-30T07:09:16.219Z,31
2023-04-30T07:11:47.484Z,32
2023-04-30T07:14:18.725Z,50
2023-04-30T07:16:50.272Z,68
2023-04-30T07:19:22.368Z,36
2023-04-30T07:21:52.761Z,34
2023-04-30T07:24:23.365Z,28
2023-04-30T07:26:54.358Z,32
2023-04-30T07:29:25.229Z,31
2023-04-30T07:31:55.839Z,28
2023-04-30T07:48:10.109Z,24
2023-04-30T07:50:41.009Z,25
2023-04-30T07:53:11.344Z,24
2023-04-30T07:55:42.353Z,24
2023-04-30T07:58:11.477Z,24
2023-04-30T08:00:42.168Z,24
2023-04-30T08:03:13.289Z,28
2023-04-30T08:05:43.969Z,28
2023-04-30T08:08:14.710Z,25
2023-04-30T08:10:51.896Z,24
2023-04-30T08:13:22.640Z,28
2023-04-30T08:15:52.871Z,28
2023-04-30T08:18:23.939Z,24
2023-04-30T08:23:35.452Z,32
2023-04-30T08:26:13.692Z,27
2023-04-30T08:28:44.533Z,24
2023-04-30T08:31:15.516Z,26
2023-04-30T08:33:46.606Z,24
2023-04-30T08:36:17.134Z,24
2023-04-30T08:38:48.003Z,24
2023-04-30T08:41:18.756Z,23
2023-04-30T08:43:49.679Z,24
2023-04-30T08:46:20.829Z,23
2023-04-30T08:48:51.795Z,24
2023-04-30T08:51:22.262Z,25
2023-04-30T08:53:52.952Z,24
2023-04-30T08:56:25.343Z,24
2023-04-30T08:58:54.359Z,24
2023-04-30T09:01:25.480Z,20
2023-04-30T09:03:56.114Z,22
2023-04-30T09:06:26.884Z,24
2023-04-30T09:08:58.540Z,20
2023-04-30T09:11:29.557Z,24
2023-04-30T09:14:00.656Z,20
2023-04-30T09:16:32.701Z,18
2023-04-30T09:19:03.432Z,16
2023-04-30T09:21:34.102Z,16
2023-04-30T09:24:05.575Z,16
2023-04-30T09:26:36.351Z,20
2023-04-30T09:29:07.152Z,20
2023-04-30T09:31:38.475Z,24
2023-04-30T09:34:09.246Z,20
2023-04-30T09:36:39.683Z,21
2023-04-30T09:39:11.521Z,28
2023-04-30T09:41:41.270Z,23
2023-04-30T09:44:12.077Z,24
2023-04-30T09:46:41.220Z,24
2023-04-30T09:49:11.850Z,22
2023-04-30T09:54:42.341Z,19
2023-04-30T09:57:12.230Z,16
2023-04-30T09:59:40.991Z,16
2023-04-30T10:02:11.252Z,16
2023-04-30T10:04:42.338Z,12
2023-04-30T10:07:12.982Z,16
2023-04-30T10:09:41.734Z,15
2023-04-30T10:12:12.686Z,13
2023-04-30T10:14:43.691Z,16
2023-04-30T10:17:14.910Z,16
2023-04-30T10:19:47.807Z,19
2023-04-30T10:22:16.912Z,16
2023-04-30T10:24:48.763Z,20
2023-04-30T10:27:19.700Z,18
2023-04-30T10:29:50.566Z,16
2023-04-30T10:32:20.990Z,16
2023-04-30T10:34:51.990Z,16
2023-04-30T10:37:22.851Z,16
2023-04-30T10:39:53.753Z,15
2023-04-30T10:42:24.934Z,14
2023-04-30T10:44:56.065Z,16
2023-04-30T10:47:26.872Z,16
2023-04-30T10:49:59.286Z,12
2023-04-30T10:52:30.357Z,12
2023-04-30T10:55:01.764Z,12
2023-04-30T10:57:32.888Z,16
2023-04-30T11:00:03.859Z,18
2023-04-30T11:02:34.837Z,12
2023-04-30T11:05:05.928Z,16
2023-04-30T11:07:36.832Z,16
2023-04-30T11:10:08.172Z,16
2023-04-30T11:12:39.293Z,16
2023-04-30T11:15:10.555Z,12
2023-04-30T11:17:41.854Z,16
2023-04-30T11:20:10.977Z,16
2023-04-30T11:22:41.641Z,12
2023-04-30T11:25:12.858Z,12
2023-04-30T11:27:43.859Z,16
2023-04-30T11:30:14.836Z,12
2023-04-30T11:32:45.819Z,16
2023-04-30T11:35:16.867Z,18
2023-04-30T11:37:47.777Z,14
2023-04-30T11:40:18.844Z,16
2023-04-30T11:42:49.948Z,12
2023-04-30T11:45:21.043Z,16
2023-04-30T11:47:51.887Z,16
2023-04-30T11:50:23.038Z,16
2023-04-30T11:52:54.203Z,16
2023-04-30T11:55:25.174Z,18
2023-04-30T11:57:54.129Z,20
2023-04-30T12:00:24.513Z,20
2023-04-30T12:02:55.441Z,20
2023-04-30T12:05:26.092Z,16
2023-04-30T12:07:57.021Z,16
2023-04-30T12:13:03.570Z,24
2023-04-30T12:15:34.587Z,20
2023-04-30T12:18:05.384Z,24
2023-04-30T12:20:36.064Z,23
2023-04-30T12:23:06.810Z,20
2023-04-30T12:28:06.199Z,20
2023-04-30T12:33:16.102Z,28
2023-04-30T12:35:46.654Z,24
2023-04-30T12:46:16.581Z,28
2023-04-30T12:48:56.409Z,32
2023-04-30T12:54:33.206Z,28
2023-04-30T12:59:55.703Z,24
2023-04-30T13:05:22.003Z,28
2023-04-30T13:08:00.627Z,24
2023-04-30T13:13:42.229Z,24
2023-04-30T13:22:11.213Z,21
2023-04-30T13:24:41.026Z,24
2023-04-30T13:30:00.407Z,24
2023-04-30T13:35:10.924Z,24
2023-04-30T13:37:43.173Z,22
2023-04-30T13:48:33.314Z,24
2023-04-30T13:51:10.694Z,23
2023-04-30T13:54:05.480Z,20
2023-04-30T13:56:55.743Z,20
2023-04-30T14:05:11.916Z,23
2023-04-30T14:07:50.897Z,21
2023-04-30T14:10:40.430Z,24
2023-04-30T14:13:22.253Z,20
2023-04-30T14:16:03.847Z,24
2023-04-30T14:18:34.383Z,20
2023-04-30T14:32:44.842Z,21
2023-04-30T14:40:29.361Z,20
2023-04-30T14:48:36.494Z,24
2023-04-30T15:11:17.059Z,24
2023-04-30T15:13:51.633Z,24
2023-04-30T15:24:49.899Z,17
2023-04-30T15:27:31.917Z,16
2023-04-30T15:30:05.741Z,16
2023-04-30T15:35:38.504Z,16
2023-04-30T15:38:13.167Z,16
2023-04-30T15:46:24.117Z,12
2023-04-30T15:49:01.869Z,14
2023-04-30T15:51:32.608Z,12
2023-04-30T15:54:11.373Z,8
2023-04-30T15:59:45.661Z,4
2023-04-30T16:02:22.445Z,4
2023-04-30T16:05:00.516Z,4
2023-04-30T16:13:03.788Z,4
2023-04-30T16:27:23.657Z,8
2023-04-30T16:41:15.950Z,8
2023-04-30T16:43:58.397Z,8
2023-04-30T16:54:59.624Z,8
2023-04-30T17:03:10.044Z,8
2023-04-30T17:08:16.602Z,8
2023-04-30T17:19:18.039Z,10
2023-04-30T17:24:36.223Z,12
2023-04-30T17:30:03.695Z,12
2023-04-30T17:38:13.571Z,14
2023-04-30T17:49:00.476Z,16
2023-04-30T17:51:36.447Z,16
2023-04-30T18:02:35.102Z,29
2023-04-30T18:19:25.851Z,12
2023-04-30T18:22:18.019Z,8
2023-04-30T18:28:23.208Z,15
2023-04-30T18:50:29.045Z,19
2023-04-30T18:53:25.448Z,20
2023-04-30T18:56:09.146Z,16
2023-04-30T19:01:34.337Z,16
2023-04-30T19:04:09.161Z,20
2023-04-30T19:06:50.693Z,24
2023-04-30T19:11:52.247Z,21
2023-04-30T19:14:30.687Z,21
2023-04-30T19:17:00.979Z,24
2023-04-30T19:19:37.792Z,20
2023-04-30T19:22:09.640Z,24
2023-04-30T19:24:40.549Z,24
2023-04-30T19:30:03.406Z,26
2023-04-30T19:32:37.820Z,28
2023-04-30T19:37:48.380Z,28
2023-04-30T19:40:22.576Z,29
2023-04-30T19:42:54.735Z,32
2023-04-30T19:45:29.527Z,36
2023-04-30T19:48:03.943Z,32
2023-04-30T19:50:40.886Z,32
2023-04-30T19:53:11.724Z,32
2023-04-30T19:58:37.617Z,39
2023-04-30T20:01:14.930Z,32
2023-04-30T20:03:58.917Z,32
2023-04-30T20:06:37.567Z,32
2023-04-30T20:09:16.672Z,32
2023-04-30T20:12:03.457Z,32
2023-04-30T20:14:38.025Z,32
2023-04-30T20:17:15.881Z,32
2023-04-30T20:22:46.245Z,35
2023-04-30T20:25:30.867Z,32
2023-04-30T20:30:49.478Z,32
2023-04-30T20:36:23.618Z,31
2023-04-30T20:39:07.438Z,31
2023-04-30T20:41:48.861Z,32
2023-04-30T20:44:35.828Z,32
2023-04-30T20:49:58.255Z,32
2023-04-30T20:52:37.313Z,32
2023-04-30T20:55:14.040Z,32
2023-04-30T20:57:55.572Z,32
2023-04-30T21:00:32.012Z,32
2023-04-30T21:03:17.277Z,32
2023-04-30T21:08:37.107Z,32
2023-04-30T21:11:18.370Z,32
2023-04-30T21:19:14.523Z,32
2023-04-30T21:30:16.029Z,32
2023-04-30T21:32:46.783Z,34
2023-04-30T21:35:17.005Z,32
2023-04-30T21:37:48.609Z,32
2023-04-30T21:40:25.004Z,32
2023-04-30T21:42:57.240Z,33
2023-04-30T21:45:27.520Z,36
2023-04-30T21:48:03.410Z,34
2023-04-30T21:53:31.326Z,32
2023-04-30T21:56:07.209Z,32
2023-04-30T21:58:37.524Z,35
2023-04-30T22:01:08.082Z,36
2023-04-30T22:06:14.946Z,32
2023-04-30T22:08:45.204Z,33
2023-04-30T22:11:18.906Z,32
2023-04-30T22:13:49.117Z,32
2023-04-30T22:16:20.754Z,36
2023-04-30T22:19:04.439Z,32
2023-04-30T22:21:36.049Z,32
2023-04-30T22:26:54.190Z,32
2023-04-30T22:29:30.112Z,32
2023-04-30T22:37:54.885Z,32
2023-04-30T22:43:15.028Z,32
2023-04-30T22:45:48.420Z,32
2023-04-30T22:50:54.848Z,32
2023-04-30T22:56:01.529Z,32
2023-04-30T23:01:15.648Z,32
2023-04-30T23:03:46.980Z,32
2023-04-30T23:06:18.034Z,29
2023-04-30T23:08:49.204Z,32
2023-04-30T23:11:18.085Z,32
2023-04-30T23:13:49.094Z,32
2023-04-30T23:16:20.409Z,28
2023-04-30T23:18:51.148Z,28
2023-04-30T23:21:21.865Z,30
2023-04-30T23:23:52.845Z,30
2023-04-30T23:26:24.249Z,32
2023-04-30T23:29:00.523Z,30
2023-04-30T23:31:31.334Z,32
2023-04-30T23:34:04.928Z,31
2023-04-30T23:36:35.221Z,30
2023-04-30T23:39:05.914Z,32
2023-04-30T23:41:42.568Z,32
2023-04-30T23:49:27.339Z,32
2023-04-30T23:52:05.261Z,28
2023-04-30T23:54:34.448Z,28
2023-04-30T23:57:05.362Z,29
2023-04-30T23:59:36.064Z,32
